sensor_id;sensor_type;location;lat;lon;timestamp;P1;durP1;ratioP1;P2;durP2;ratioP2
11699;SDS011;5906;51.660;6.674;2022-07-15T00:02:13;8.80;;;3.80;;
11699;SDS011;5906;51.660;6.674;2022-07-15T00:04:40;10.70;;;4.50;;
11699;SDS011;5906;51.660;6.674;2022-07-15T00:07:07;5.90;;;4.00;;
11699;SDS011;5906;51.660;6.674;2022-07-15T00:09:34;8.77;;;4.40;;
11699;SDS011;5906;51.660;6.674;2022-07-15T00:12:20;8.70;;;3.90;;
11699;SDS011;5906;51.660;6.674;2022-07-15T00:14:46;8.13;;;4.27;;
11699;SDS011;5906;51.660;6.674;2022-07-15T00:17:13;10.43;;;4.00;;
11699;SDS011;5906;51.660;6.674;2022-07-15T00:19:40;11.67;;;4.30;;
11699;SDS011;5906;51.660;6.674;2022-07-15T00:22:07;5.07;;;3.83;;
11699;SDS011;5906;51.660;6.674;2022-07-15T00:24:34;9.53;;;3.93;;
11699;SDS011;5906;51.660;6.674;2022-07-15T00:27:00;6.80;;;3.60;;
11699;SDS011;5906;51.660;6.674;2022-07-15T00:29:29;13.93;;;4.20;;
11699;SDS011;5906;51.660;6.674;2022-07-15T00:31:56;12.80;;;4.50;;
11699;SDS011;5906;51.660;6.674;2022-07-15T00:34:32;11.03;;;4.37;;
11699;SDS011;5906;51.660;6.674;2022-07-15T00:36:59;9.70;;;4.43;;
11699;SDS011;5906;51.660;6.674;2022-07-15T00:39:26;13.50;;;4.23;;
11699;SDS011;5906;51.660;6.674;2022-07-15T00:41:52;6.10;;;4.10;;
11699;SDS011;5906;51.660;6.674;2022-07-15T00:44:19;8.27;;;4.17;;
11699;SDS011;5906;51.660;6.674;2022-07-15T00:46:46;7.60;;;4.10;;
11699;SDS011;5906;51.660;6.674;2022-07-15T00:49:14;16.73;;;4.00;;
11699;SDS011;5906;51.660;6.674;2022-07-15T00:51:42;11.30;;;4.53;;
11699;SDS011;5906;51.660;6.674;2022-07-15T00:54:11;10.13;;;4.17;;
11699;SDS011;5906;51.660;6.674;2022-07-15T00:56:51;14.03;;;4.00;;
11699;SDS011;5906;51.660;6.674;2022-07-15T00:59:24;7.30;;;3.97;;
11699;SDS011;5906;51.660;6.674;2022-07-15T01:01:54;12.17;;;4.70;;
11699;SDS011;5906;51.660;6.674;2022-07-15T01:04:22;10.50;;;4.77;;
11699;SDS011;5906;51.660;6.674;2022-07-15T01:06:51;8.07;;;3.90;;
11699;SDS011;5906;51.660;6.674;2022-07-15T01:09:18;9.80;;;4.67;;
11699;SDS011;5906;51.660;6.674;2022-07-15T01:11:46;12.13;;;4.37;;
11699;SDS011;5906;51.660;6.674;2022-07-15T01:14:13;9.60;;;4.10;;
11699;SDS011;5906;51.660;6.674;2022-07-15T01:16:40;9.33;;;4.33;;
11699;SDS011;5906;51.660;6.674;2022-07-15T01:19:07;10.67;;;4.93;;
11699;SDS011;5906;51.660;6.674;2022-07-15T01:21:34;15.17;;;4.67;;
11699;SDS011;5906;51.660;6.674;2022-07-15T01:24:03;16.10;;;5.20;;
11699;SDS011;5906;51.660;6.674;2022-07-15T01:26:30;9.60;;;4.20;;
11699;SDS011;5906;51.660;6.674;2022-07-15T01:28:57;13.60;;;4.80;;
11699;SDS011;5906;51.660;6.674;2022-07-15T01:31:24;5.70;;;4.10;;
11699;SDS011;5906;51.660;6.674;2022-07-15T01:33:50;12.03;;;4.90;;
11699;SDS011;5906;51.660;6.674;2022-07-15T01:36:20;10.80;;;4.37;;
11699;SDS011;5906;51.660;6.674;2022-07-15T01:38:47;10.27;;;4.50;;
11699;SDS011;5906;51.660;6.674;2022-07-15T01:41:31;16.03;;;4.77;;
11699;SDS011;5906;51.660;6.674;2022-07-15T01:43:58;9.00;;;4.23;;
11699;SDS011;5906;51.660;6.674;2022-07-15T01:46:24;8.17;;;4.13;;
11699;SDS011;5906;51.660;6.674;2022-07-15T01:48:51;10.73;;;4.50;;
11699;SDS011;5906;51.660;6.674;2022-07-15T01:51:36;10.83;;;3.73;;
11699;SDS011;5906;51.660;6.674;2022-07-15T01:54:03;11.50;;;4.17;;
11699;SDS011;5906;51.660;6.674;2022-07-15T01:56:30;10.20;;;4.17;;
11699;SDS011;5906;51.660;6.674;2022-07-15T01:58:57;9.53;;;4.27;;
11699;SDS011;5906;51.660;6.674;2022-07-15T02:01:24;10.40;;;4.33;;
11699;SDS011;5906;51.660;6.674;2022-07-15T02:03:52;8.23;;;3.97;;
11699;SDS011;5906;51.660;6.674;2022-07-15T02:06:18;12.30;;;4.43;;
11699;SDS011;5906;51.660;6.674;2022-07-15T02:08:45;6.70;;;3.60;;
11699;SDS011;5906;51.660;6.674;2022-07-15T02:11:12;8.90;;;4.17;;
11699;SDS011;5906;51.660;6.674;2022-07-15T02:13:40;13.80;;;5.10;;
11699;SDS011;5906;51.660;6.674;2022-07-15T02:16:07;8.93;;;3.80;;
11699;SDS011;5906;51.660;6.674;2022-07-15T02:18:34;9.80;;;4.60;;
11699;SDS011;5906;51.660;6.674;2022-07-15T02:21:00;16.23;;;4.70;;
11699;SDS011;5906;51.660;6.674;2022-07-15T02:23:28;9.57;;;4.20;;
11699;SDS011;5906;51.660;6.674;2022-07-15T02:25:55;13.00;;;4.20;;
11699;SDS011;5906;51.660;6.674;2022-07-15T02:28:22;10.23;;;4.67;;
11699;SDS011;5906;51.660;6.674;2022-07-15T02:30:49;7.03;;;4.20;;
11699;SDS011;5906;51.660;6.674;2022-07-15T02:33:16;7.33;;;3.97;;
11699;SDS011;5906;51.660;6.674;2022-07-15T02:35:43;8.03;;;4.43;;
11699;SDS011;5906;51.660;6.674;2022-07-15T02:38:10;13.47;;;4.97;;
11699;SDS011;5906;51.660;6.674;2022-07-15T02:40:36;14.57;;;4.73;;
11699;SDS011;5906;51.660;6.674;2022-07-15T02:43:09;13.90;;;4.10;;
11699;SDS011;5906;51.660;6.674;2022-07-15T02:45:37;6.60;;;3.90;;
11699;SDS011;5906;51.660;6.674;2022-07-15T02:48:04;9.30;;;4.80;;
11699;SDS011;5906;51.660;6.674;2022-07-15T02:50:32;8.73;;;4.43;;
11699;SDS011;5906;51.660;6.674;2022-07-15T02:52:59;7.40;;;4.00;;
11699;SDS011;5906;51.660;6.674;2022-07-15T02:55:27;6.90;;;4.53;;
11699;SDS011;5906;51.660;6.674;2022-07-15T02:57:54;10.27;;;4.53;;
11699;SDS011;5906;51.660;6.674;2022-07-15T03:00:21;6.07;;;4.10;;
11699;SDS011;5906;51.660;6.674;2022-07-15T03:02:48;11.00;;;4.70;;
11699;SDS011;5906;51.660;6.674;2022-07-15T03:05:16;9.70;;;4.90;;
11699;SDS011;5906;51.660;6.674;2022-07-15T03:07:44;10.80;;;5.27;;
11699;SDS011;5906;51.660;6.674;2022-07-15T03:10:11;14.23;;;5.07;;
11699;SDS011;5906;51.660;6.674;2022-07-15T03:12:39;11.57;;;4.87;;
11699;SDS011;5906;51.660;6.674;2022-07-15T03:15:06;8.33;;;4.40;;
11699;SDS011;5906;51.660;6.674;2022-07-15T03:17:33;10.50;;;4.60;;
11699;SDS011;5906;51.660;6.674;2022-07-15T03:20:00;6.90;;;4.97;;
11699;SDS011;5906;51.660;6.674;2022-07-15T03:22:27;9.00;;;4.30;;
11699;SDS011;5906;51.660;6.674;2022-07-15T03:24:53;8.70;;;4.90;;
11699;SDS011;5906;51.660;6.674;2022-07-15T03:27:20;14.27;;;4.73;;
11699;SDS011;5906;51.660;6.674;2022-07-15T03:29:47;11.63;;;5.17;;
11699;SDS011;5906;51.660;6.674;2022-07-15T03:32:15;8.17;;;4.53;;
11699;SDS011;5906;51.660;6.674;2022-07-15T03:34:42;9.33;;;4.50;;
11699;SDS011;5906;51.660;6.674;2022-07-15T03:37:10;8.50;;;4.93;;
11699;SDS011;5906;51.660;6.674;2022-07-15T03:39:37;12.87;;;4.60;;
11699;SDS011;5906;51.660;6.674;2022-07-15T03:42:04;7.67;;;4.57;;
11699;SDS011;5906;51.660;6.674;2022-07-15T03:44:31;9.83;;;4.20;;
11699;SDS011;5906;51.660;6.674;2022-07-15T03:46:58;11.07;;;4.90;;
11699;SDS011;5906;51.660;6.674;2022-07-15T03:49:25;11.70;;;5.30;;
11699;SDS011;5906;51.660;6.674;2022-07-15T03:51:51;10.33;;;4.97;;
11699;SDS011;5906;51.660;6.674;2022-07-15T03:54:18;11.23;;;4.80;;
11699;SDS011;5906;51.660;6.674;2022-07-15T03:56:45;12.23;;;4.73;;
11699;SDS011;5906;51.660;6.674;2022-07-15T03:59:14;9.93;;;4.63;;
11699;SDS011;5906;51.660;6.674;2022-07-15T04:01:41;14.97;;;5.27;;
11699;SDS011;5906;51.660;6.674;2022-07-15T04:04:09;9.00;;;4.50;;
11699;SDS011;5906;51.660;6.674;2022-07-15T04:06:36;12.80;;;5.07;;
11699;SDS011;5906;51.660;6.674;2022-07-15T04:09:03;10.80;;;5.10;;
11699;SDS011;5906;51.660;6.674;2022-07-15T04:11:29;15.87;;;5.30;;
11699;SDS011;5906;51.660;6.674;2022-07-15T04:13:56;7.80;;;4.90;;
11699;SDS011;5906;51.660;6.674;2022-07-15T04:16:23;11.63;;;5.00;;
11699;SDS011;5906;51.660;6.674;2022-07-15T04:18:50;8.33;;;4.40;;
11699;SDS011;5906;51.660;6.674;2022-07-15T04:21:17;9.20;;;5.40;;
11699;SDS011;5906;51.660;6.674;2022-07-15T04:23:44;10.67;;;5.00;;
11699;SDS011;5906;51.660;6.674;2022-07-15T04:26:11;8.37;;;5.43;;
11699;SDS011;5906;51.660;6.674;2022-07-15T04:28:38;10.13;;;4.73;;
11699;SDS011;5906;51.660;6.674;2022-07-15T04:31:04;13.70;;;4.63;;
11699;SDS011;5906;51.660;6.674;2022-07-15T04:33:31;11.30;;;4.90;;
11699;SDS011;5906;51.660;6.674;2022-07-15T04:35:58;11.80;;;4.80;;
11699;SDS011;5906;51.660;6.674;2022-07-15T04:38:24;11.40;;;4.83;;
11699;SDS011;5906;51.660;6.674;2022-07-15T04:40:52;9.40;;;4.80;;
11699;SDS011;5906;51.660;6.674;2022-07-15T04:43:18;11.50;;;5.13;;
11699;SDS011;5906;51.660;6.674;2022-07-15T04:45:45;8.57;;;4.50;;
11699;SDS011;5906;51.660;6.674;2022-07-15T04:48:12;10.13;;;4.83;;
11699;SDS011;5906;51.660;6.674;2022-07-15T04:50:57;12.77;;;4.30;;
11699;SDS011;5906;51.660;6.674;2022-07-15T04:53:24;9.03;;;4.53;;
11699;SDS011;5906;51.660;6.674;2022-07-15T04:55:51;11.37;;;4.57;;
11699;SDS011;5906;51.660;6.674;2022-07-15T04:58:18;7.20;;;4.07;;
11699;SDS011;5906;51.660;6.674;2022-07-15T05:00:45;8.47;;;4.10;;
11699;SDS011;5906;51.660;6.674;2022-07-15T05:03:12;8.13;;;4.20;;
11699;SDS011;5906;51.660;6.674;2022-07-15T05:05:40;18.20;;;5.00;;
11699;SDS011;5906;51.660;6.674;2022-07-15T05:08:08;12.37;;;4.27;;
11699;SDS011;5906;51.660;6.674;2022-07-15T05:10:34;9.60;;;3.83;;
11699;SDS011;5906;51.660;6.674;2022-07-15T05:13:04;7.83;;;3.80;;
11699;SDS011;5906;51.660;6.674;2022-07-15T05:15:31;7.80;;;3.67;;
11699;SDS011;5906;51.660;6.674;2022-07-15T05:18:00;8.73;;;4.30;;
11699;SDS011;5906;51.660;6.674;2022-07-15T05:20:26;10.20;;;3.73;;
11699;SDS011;5906;51.660;6.674;2022-07-15T05:22:53;14.20;;;4.90;;
11699;SDS011;5906;51.660;6.674;2022-07-15T05:25:20;7.27;;;3.13;;
11699;SDS011;5906;51.660;6.674;2022-07-15T05:27:47;6.03;;;3.27;;
11699;SDS011;5906;51.660;6.674;2022-07-15T05:30:14;14.13;;;3.67;;
11699;SDS011;5906;51.660;6.674;2022-07-15T05:32:42;6.67;;;3.33;;
11699;SDS011;5906;51.660;6.674;2022-07-15T05:35:11;15.43;;;3.70;;
11699;SDS011;5906;51.660;6.674;2022-07-15T05:37:39;7.67;;;3.93;;
11699;SDS011;5906;51.660;6.674;2022-07-15T05:40:06;14.50;;;3.57;;
11699;SDS011;5906;51.660;6.674;2022-07-15T05:42:34;10.57;;;3.60;;
11699;SDS011;5906;51.660;6.674;2022-07-15T05:45:01;10.27;;;3.37;;
11699;SDS011;5906;51.660;6.674;2022-07-15T05:47:28;9.07;;;3.27;;
11699;SDS011;5906;51.660;6.674;2022-07-15T05:49:55;7.70;;;3.17;;
11699;SDS011;5906;51.660;6.674;2022-07-15T05:52:22;4.80;;;2.47;;
11699;SDS011;5906;51.660;6.674;2022-07-15T05:54:48;20.40;;;3.27;;
11699;SDS011;5906;51.660;6.674;2022-07-15T05:57:15;12.47;;;3.60;;
11699;SDS011;5906;51.660;6.674;2022-07-15T05:59:42;10.30;;;3.07;;
11699;SDS011;5906;51.660;6.674;2022-07-15T06:02:09;14.67;;;3.57;;
11699;SDS011;5906;51.660;6.674;2022-07-15T06:04:36;17.90;;;4.00;;
11699;SDS011;5906;51.660;6.674;2022-07-15T06:07:03;4.97;;;2.70;;
11699;SDS011;5906;51.660;6.674;2022-07-15T06:09:30;7.93;;;2.53;;
11699;SDS011;5906;51.660;6.674;2022-07-15T06:11:56;11.03;;;2.87;;
11699;SDS011;5906;51.660;6.674;2022-07-15T06:14:24;6.93;;;2.40;;
11699;SDS011;5906;51.660;6.674;2022-07-15T06:16:51;15.37;;;2.90;;
11699;SDS011;5906;51.660;6.674;2022-07-15T06:19:18;10.23;;;2.83;;
11699;SDS011;5906;51.660;6.674;2022-07-15T06:21:45;10.87;;;3.17;;
11699;SDS011;5906;51.660;6.674;2022-07-15T06:24:11;9.77;;;2.67;;
11699;SDS011;5906;51.660;6.674;2022-07-15T06:26:38;6.10;;;2.50;;
11699;SDS011;5906;51.660;6.674;2022-07-15T06:29:05;11.73;;;2.50;;
11699;SDS011;5906;51.660;6.674;2022-07-15T06:31:32;7.47;;;2.70;;
11699;SDS011;5906;51.660;6.674;2022-07-15T06:33:59;9.03;;;3.00;;
11699;SDS011;5906;51.660;6.674;2022-07-15T06:36:26;5.17;;;2.23;;
11699;SDS011;5906;51.660;6.674;2022-07-15T06:38:53;7.50;;;3.10;;
11699;SDS011;5906;51.660;6.674;2022-07-15T06:41:21;7.00;;;2.23;;
11699;SDS011;5906;51.660;6.674;2022-07-15T06:43:55;5.87;;;2.40;;
11699;SDS011;5906;51.660;6.674;2022-07-15T06:46:22;12.20;;;3.30;;
11699;SDS011;5906;51.660;6.674;2022-07-15T06:48:49;6.70;;;2.70;;
11699;SDS011;5906;51.660;6.674;2022-07-15T06:51:16;7.77;;;2.40;;
11699;SDS011;5906;51.660;6.674;2022-07-15T06:53:43;11.47;;;3.40;;
11699;SDS011;5906;51.660;6.674;2022-07-15T06:56:10;8.10;;;2.70;;
11699;SDS011;5906;51.660;6.674;2022-07-15T06:58:37;7.50;;;2.73;;
11699;SDS011;5906;51.660;6.674;2022-07-15T07:01:04;8.70;;;3.90;;
11699;SDS011;5906;51.660;6.674;2022-07-15T07:03:31;6.20;;;2.07;;
11699;SDS011;5906;51.660;6.674;2022-07-15T07:06:17;9.17;;;2.50;;
11699;SDS011;5906;51.660;6.674;2022-07-15T07:08:44;14.67;;;2.90;;
11699;SDS011;5906;51.660;6.674;2022-07-15T07:11:13;6.00;;;2.27;;
11699;SDS011;5906;51.660;6.674;2022-07-15T07:13:41;5.43;;;2.27;;
11699;SDS011;5906;51.660;6.674;2022-07-15T07:16:07;6.27;;;2.10;;
11699;SDS011;5906;51.660;6.674;2022-07-15T07:18:34;3.63;;;2.47;;
11699;SDS011;5906;51.660;6.674;2022-07-15T07:21:01;3.20;;;2.10;;
11699;SDS011;5906;51.660;6.674;2022-07-15T07:23:28;3.97;;;1.90;;
11699;SDS011;5906;51.660;6.674;2022-07-15T07:25:57;7.33;;;2.30;;
11699;SDS011;5906;51.660;6.674;2022-07-15T07:28:25;7.87;;;2.20;;
11699;SDS011;5906;51.660;6.674;2022-07-15T07:30:52;6.10;;;2.53;;
11699;SDS011;5906;51.660;6.674;2022-07-15T07:33:21;7.97;;;2.00;;
11699;SDS011;5906;51.660;6.674;2022-07-15T07:35:48;8.23;;;2.07;;
11699;SDS011;5906;51.660;6.674;2022-07-15T07:38:15;4.30;;;2.30;;
11699;SDS011;5906;51.660;6.674;2022-07-15T07:40:43;8.70;;;2.00;;
11699;SDS011;5906;51.660;6.674;2022-07-15T07:43:10;7.00;;;2.57;;
11699;SDS011;5906;51.660;6.674;2022-07-15T07:45:37;9.83;;;2.50;;
11699;SDS011;5906;51.660;6.674;2022-07-15T07:48:04;6.60;;;2.20;;
11699;SDS011;5906;51.660;6.674;2022-07-15T07:50:31;11.50;;;2.60;;
11699;SDS011;5906;51.660;6.674;2022-07-15T07:52:57;8.57;;;2.47;;
11699;SDS011;5906;51.660;6.674;2022-07-15T07:55:24;4.63;;;2.07;;
11699;SDS011;5906;51.660;6.674;2022-07-15T07:57:53;6.90;;;1.87;;
11699;SDS011;5906;51.660;6.674;2022-07-15T08:00:21;4.47;;;1.80;;
11699;SDS011;5906;51.660;6.674;2022-07-15T08:02:49;2.80;;;1.70;;
11699;SDS011;5906;51.660;6.674;2022-07-15T08:05:16;9.50;;;2.33;;
11699;SDS011;5906;51.660;6.674;2022-07-15T08:07:50;5.73;;;1.90;;
11699;SDS011;5906;51.660;6.674;2022-07-15T08:10:17;5.97;;;1.90;;
11699;SDS011;5906;51.660;6.674;2022-07-15T08:12:45;9.13;;;2.40;;
11699;SDS011;5906;51.660;6.674;2022-07-15T08:15:12;5.40;;;2.10;;
11699;SDS011;5906;51.660;6.674;2022-07-15T08:17:39;7.00;;;2.37;;
11699;SDS011;5906;51.660;6.674;2022-07-15T08:20:06;6.83;;;2.23;;
11699;SDS011;5906;51.660;6.674;2022-07-15T08:22:35;4.40;;;1.80;;
11699;SDS011;5906;51.660;6.674;2022-07-15T08:25:03;5.87;;;2.10;;
11699;SDS011;5906;51.660;6.674;2022-07-15T08:27:30;5.77;;;2.20;;
11699;SDS011;5906;51.660;6.674;2022-07-15T08:29:56;7.53;;;2.60;;
11699;SDS011;5906;51.660;6.674;2022-07-15T08:32:24;8.70;;;2.80;;
11699;SDS011;5906;51.660;6.674;2022-07-15T08:34:51;4.47;;;1.80;;
11699;SDS011;5906;51.660;6.674;2022-07-15T08:37:18;10.60;;;2.10;;
11699;SDS011;5906;51.660;6.674;2022-07-15T08:39:44;5.90;;;2.03;;
11699;SDS011;5906;51.660;6.674;2022-07-15T08:42:12;6.40;;;2.17;;
11699;SDS011;5906;51.660;6.674;2022-07-15T08:44:40;4.47;;;1.80;;
11699;SDS011;5906;51.660;6.674;2022-07-15T08:47:07;12.83;;;1.97;;
11699;SDS011;5906;51.660;6.674;2022-07-15T08:49:57;7.00;;;2.00;;
11699;SDS011;5906;51.660;6.674;2022-07-15T08:52:24;7.87;;;2.30;;
11699;SDS011;5906;51.660;6.674;2022-07-15T08:54:51;6.37;;;1.80;;
11699;SDS011;5906;51.660;6.674;2022-07-15T08:57:19;6.17;;;1.90;;
11699;SDS011;5906;51.660;6.674;2022-07-15T08:59:45;4.77;;;2.00;;
11699;SDS011;5906;51.660;6.674;2022-07-15T09:02:13;5.80;;;1.60;;
11699;SDS011;5906;51.660;6.674;2022-07-15T09:07:51;3.33;;;1.70;;
11699;SDS011;5906;51.660;6.674;2022-07-15T09:10:20;5.70;;;1.90;;
11699;SDS011;5906;51.660;6.674;2022-07-15T09:12:48;5.23;;;1.80;;
11699;SDS011;5906;51.660;6.674;2022-07-15T09:15:32;6.10;;;2.03;;
11699;SDS011;5906;51.660;6.674;2022-07-15T09:18:09;3.70;;;1.33;;
11699;SDS011;5906;51.660;6.674;2022-07-15T09:20:40;3.00;;;1.70;;
11699;SDS011;5906;51.660;6.674;2022-07-15T09:23:09;9.50;;;1.93;;
11699;SDS011;5906;51.660;6.674;2022-07-15T09:25:38;5.53;;;2.00;;
11699;SDS011;5906;51.660;6.674;2022-07-15T09:28:07;5.00;;;1.70;;
11699;SDS011;5906;51.660;6.674;2022-07-15T09:30:35;7.20;;;2.00;;
11699;SDS011;5906;51.660;6.674;2022-07-15T09:33:24;3.70;;;1.80;;
11699;SDS011;5906;51.660;6.674;2022-07-15T09:38:34;5.80;;;1.87;;
11699;SDS011;5906;51.660;6.674;2022-07-15T09:41:07;8.77;;;2.40;;
11699;SDS011;5906;51.660;6.674;2022-07-15T09:43:52;5.80;;;1.80;;
11699;SDS011;5906;51.660;6.674;2022-07-15T09:46:22;3.43;;;1.60;;
11699;SDS011;5906;51.660;6.674;2022-07-15T09:48:51;5.07;;;1.87;;
11699;SDS011;5906;51.660;6.674;2022-07-15T09:51:19;6.20;;;1.73;;
11699;SDS011;5906;51.660;6.674;2022-07-15T09:53:47;3.27;;;1.73;;
11699;SDS011;5906;51.660;6.674;2022-07-15T09:56:16;6.37;;;1.67;;
11699;SDS011;5906;51.660;6.674;2022-07-15T09:58:47;5.00;;;1.50;;
11699;SDS011;5906;51.660;6.674;2022-07-15T10:01:14;4.63;;;1.60;;
11699;SDS011;5906;51.660;6.674;2022-07-15T10:03:41;7.90;;;1.50;;
11699;SDS011;5906;51.660;6.674;2022-07-15T10:06:09;6.33;;;1.30;;
11699;SDS011;5906;51.660;6.674;2022-07-15T10:08:40;2.90;;;1.40;;
11699;SDS011;5906;51.660;6.674;2022-07-15T10:11:13;3.73;;;1.30;;
11699;SDS011;5906;51.660;6.674;2022-07-15T10:21:45;4.00;;;1.43;;
11699;SDS011;5906;51.660;6.674;2022-07-15T10:27:45;7.60;;;1.90;;
11699;SDS011;5906;51.660;6.674;2022-07-15T10:30:21;4.33;;;1.50;;
11699;SDS011;5906;51.660;6.674;2022-07-15T10:33:05;5.07;;;1.80;;
11699;SDS011;5906;51.660;6.674;2022-07-15T10:43:43;2.87;;;1.37;;
11699;SDS011;5906;51.660;6.674;2022-07-15T10:48:48;3.60;;;1.77;;
11699;SDS011;5906;51.660;6.674;2022-07-15T10:54:07;2.37;;;1.40;;
11699;SDS011;5906;51.660;6.674;2022-07-15T10:56:44;4.33;;;1.40;;
11699;SDS011;5906;51.660;6.674;2022-07-15T10:59:15;2.87;;;1.40;;
11699;SDS011;5906;51.660;6.674;2022-07-15T11:02:11;2.13;;;1.10;;
11699;SDS011;5906;51.660;6.674;2022-07-15T11:04:39;6.13;;;1.67;;
11699;SDS011;5906;51.660;6.674;2022-07-15T11:12:10;3.80;;;1.67;;
11699;SDS011;5906;51.660;6.674;2022-07-15T11:14:44;3.27;;;1.40;;
11699;SDS011;5906;51.660;6.674;2022-07-15T11:17:21;4.40;;;1.30;;
11699;SDS011;5906;51.660;6.674;2022-07-15T11:20:02;2.47;;;1.30;;
11699;SDS011;5906;51.660;6.674;2022-07-15T11:22:36;3.30;;;1.30;;
11699;SDS011;5906;51.660;6.674;2022-07-15T11:25:06;3.90;;;1.20;;
11699;SDS011;5906;51.660;6.674;2022-07-15T11:27:41;5.03;;;1.40;;
11699;SDS011;5906;51.660;6.674;2022-07-15T11:30:45;2.03;;;1.10;;
11699;SDS011;5906;51.660;6.674;2022-07-15T11:33:16;1.67;;;1.57;;
11699;SDS011;5906;51.660;6.674;2022-07-15T11:35:45;2.47;;;1.30;;
11699;SDS011;5906;51.660;6.674;2022-07-15T11:38:21;3.03;;;1.10;;
11699;SDS011;5906;51.660;6.674;2022-07-15T11:40:52;4.70;;;1.20;;
11699;SDS011;5906;51.660;6.674;2022-07-15T11:43:39;2.90;;;1.33;;
11699;SDS011;5906;51.660;6.674;2022-07-15T11:46:25;2.00;;;1.00;;
11699;SDS011;5906;51.660;6.674;2022-07-15T11:48:56;1.93;;;1.10;;
11699;SDS011;5906;51.660;6.674;2022-07-15T11:51:28;2.60;;;1.10;;
11699;SDS011;5906;51.660;6.674;2022-07-15T11:53:56;1.70;;;1.13;;
11699;SDS011;5906;51.660;6.674;2022-07-15T11:56:24;1.60;;;1.10;;
11699;SDS011;5906;51.660;6.674;2022-07-15T11:58:52;1.90;;;1.03;;
11699;SDS011;5906;51.660;6.674;2022-07-15T12:01:22;2.80;;;1.23;;
11699;SDS011;5906;51.660;6.674;2022-07-15T12:03:52;3.40;;;1.00;;
11699;SDS011;5906;51.660;6.674;2022-07-15T12:06:20;1.60;;;1.10;;
11699;SDS011;5906;51.660;6.674;2022-07-15T12:08:54;2.23;;;1.20;;
11699;SDS011;5906;51.660;6.674;2022-07-15T12:11:33;5.23;;;1.20;;
11699;SDS011;5906;51.660;6.674;2022-07-15T12:14:05;1.50;;;0.90;;
11699;SDS011;5906;51.660;6.674;2022-07-15T12:16:35;2.40;;;1.10;;
11699;SDS011;5906;51.660;6.674;2022-07-15T12:19:09;2.83;;;1.40;;
11699;SDS011;5906;51.660;6.674;2022-07-15T12:21:52;1.60;;;1.23;;
11699;SDS011;5906;51.660;6.674;2022-07-15T12:24:24;4.40;;;1.33;;
11699;SDS011;5906;51.660;6.674;2022-07-15T12:29:22;2.37;;;1.10;;
11699;SDS011;5906;51.660;6.674;2022-07-15T12:32:12;3.53;;;1.00;;
11699;SDS011;5906;51.660;6.674;2022-07-15T12:37:16;1.27;;;1.13;;
11699;SDS011;5906;51.660;6.674;2022-07-15T12:39:55;4.67;;;1.20;;
11699;SDS011;5906;51.660;6.674;2022-07-15T12:42:41;3.43;;;1.20;;
11699;SDS011;5906;51.660;6.674;2022-07-15T12:47:55;2.80;;;1.20;;
11699;SDS011;5906;51.660;6.674;2022-07-15T12:50:22;2.40;;;1.00;;
11699;SDS011;5906;51.660;6.674;2022-07-15T12:52:50;3.87;;;1.30;;
11699;SDS011;5906;51.660;6.674;2022-07-15T12:55:24;1.53;;;1.07;;
11699;SDS011;5906;51.660;6.674;2022-07-15T12:58:03;1.80;;;1.10;;
11699;SDS011;5906;51.660;6.674;2022-07-15T13:00:35;4.53;;;1.20;;
11699;SDS011;5906;51.660;6.674;2022-07-15T13:08:08;5.87;;;1.07;;
11699;SDS011;5906;51.660;6.674;2022-07-15T13:10:38;2.33;;;1.30;;
11699;SDS011;5906;51.660;6.674;2022-07-15T13:13:07;4.33;;;1.20;;
11699;SDS011;5906;51.660;6.674;2022-07-15T13:15:35;4.90;;;1.47;;
11699;SDS011;5906;51.660;6.674;2022-07-15T13:18:02;3.23;;;1.40;;
11699;SDS011;5906;51.660;6.674;2022-07-15T13:20:29;2.43;;;1.40;;
11699;SDS011;5906;51.660;6.674;2022-07-15T13:22:56;3.30;;;1.77;;
11699;SDS011;5906;51.660;6.674;2022-07-15T13:25:24;3.73;;;1.73;;
11699;SDS011;5906;51.660;6.674;2022-07-15T13:27:52;1.77;;;1.27;;
11699;SDS011;5906;51.660;6.674;2022-07-15T13:30:19;2.67;;;1.30;;
11699;SDS011;5906;51.660;6.674;2022-07-15T13:32:46;1.30;;;1.20;;
11699;SDS011;5906;51.660;6.674;2022-07-15T13:35:14;3.47;;;1.30;;
11699;SDS011;5906;51.660;6.674;2022-07-15T13:37:41;3.07;;;1.20;;
11699;SDS011;5906;51.660;6.674;2022-07-15T13:40:08;5.50;;;1.27;;
11699;SDS011;5906;51.660;6.674;2022-07-15T13:42:37;5.70;;;1.43;;
11699;SDS011;5906;51.660;6.674;2022-07-15T13:45:05;3.53;;;1.20;;
11699;SDS011;5906;51.660;6.674;2022-07-15T13:47:34;3.93;;;1.63;;
11699;SDS011;5906;51.660;6.674;2022-07-15T13:50:00;3.33;;;1.20;;
11699;SDS011;5906;51.660;6.674;2022-07-15T13:52:48;9.10;;;1.60;;
11699;SDS011;5906;51.660;6.674;2022-07-15T13:55:17;3.20;;;1.50;;
11699;SDS011;5906;51.660;6.674;2022-07-15T13:57:45;2.87;;;1.27;;
11699;SDS011;5906;51.660;6.674;2022-07-15T14:00:13;1.33;;;1.17;;
11699;SDS011;5906;51.660;6.674;2022-07-15T14:02:43;2.47;;;1.30;;
11699;SDS011;5906;51.660;6.674;2022-07-15T14:05:11;5.53;;;1.47;;
11699;SDS011;5906;51.660;6.674;2022-07-15T14:07:39;6.77;;;1.50;;
11699;SDS011;5906;51.660;6.674;2022-07-15T14:10:08;2.20;;;1.40;;
11699;SDS011;5906;51.660;6.674;2022-07-15T14:12:36;3.37;;;1.20;;
11699;SDS011;5906;51.660;6.674;2022-07-15T14:15:03;4.53;;;1.30;;
11699;SDS011;5906;51.660;6.674;2022-07-15T14:17:30;5.00;;;1.43;;
11699;SDS011;5906;51.660;6.674;2022-07-15T14:19:57;1.23;;;1.13;;
11699;SDS011;5906;51.660;6.674;2022-07-15T14:22:25;3.40;;;1.50;;
11699;SDS011;5906;51.660;6.674;2022-07-15T14:24:52;9.30;;;1.50;;
11699;SDS011;5906;51.660;6.674;2022-07-15T14:27:19;1.70;;;1.07;;
11699;SDS011;5906;51.660;6.674;2022-07-15T14:29:46;3.03;;;1.37;;
11699;SDS011;5906;51.660;6.674;2022-07-15T14:32:13;3.53;;;1.30;;
11699;SDS011;5906;51.660;6.674;2022-07-15T14:34:40;3.23;;;1.50;;
11699;SDS011;5906;51.660;6.674;2022-07-15T14:37:07;5.83;;;1.53;;
11699;SDS011;5906;51.660;6.674;2022-07-15T14:39:54;3.17;;;1.33;;
11699;SDS011;5906;51.660;6.674;2022-07-15T14:42:21;6.77;;;1.50;;
11699;SDS011;5906;51.660;6.674;2022-07-15T14:44:48;4.87;;;1.90;;
11699;SDS011;5906;51.660;6.674;2022-07-15T14:47:15;3.13;;;1.40;;
11699;SDS011;5906;51.660;6.674;2022-07-15T14:49:41;4.20;;;1.60;;
11699;SDS011;5906;51.660;6.674;2022-07-15T14:52:08;3.43;;;1.47;;
11699;SDS011;5906;51.660;6.674;2022-07-15T14:54:35;2.60;;;1.10;;
11699;SDS011;5906;51.660;6.674;2022-07-15T14:57:02;2.03;;;1.30;;
11699;SDS011;5906;51.660;6.674;2022-07-15T14:59:28;3.40;;;1.80;;
11699;SDS011;5906;51.660;6.674;2022-07-15T15:01:55;4.80;;;1.53;;
11699;SDS011;5906;51.660;6.674;2022-07-15T15:04:22;2.93;;;1.40;;
11699;SDS011;5906;51.660;6.674;2022-07-15T15:06:49;5.53;;;1.80;;
11699;SDS011;5906;51.660;6.674;2022-07-15T15:09:16;1.80;;;1.27;;
11699;SDS011;5906;51.660;6.674;2022-07-15T15:11:42;3.53;;;1.77;;
11699;SDS011;5906;51.660;6.674;2022-07-15T15:14:09;2.70;;;1.47;;
11699;SDS011;5906;51.660;6.674;2022-07-15T15:16:36;4.43;;;1.37;;
11699;SDS011;5906;51.660;6.674;2022-07-15T15:19:23;5.17;;;1.30;;
11699;SDS011;5906;51.660;6.674;2022-07-15T15:21:50;5.37;;;1.40;;
11699;SDS011;5906;51.660;6.674;2022-07-15T15:24:17;2.40;;;1.67;;
11699;SDS011;5906;51.660;6.674;2022-07-15T15:26:48;2.50;;;1.50;;
11699;SDS011;5906;51.660;6.674;2022-07-15T15:29:18;2.53;;;1.60;;
11699;SDS011;5906;51.660;6.674;2022-07-15T15:31:46;2.17;;;1.20;;
11699;SDS011;5906;51.660;6.674;2022-07-15T15:34:17;5.63;;;1.77;;
11699;SDS011;5906;51.660;6.674;2022-07-15T15:36:44;8.37;;;1.90;;
11699;SDS011;5906;51.660;6.674;2022-07-15T15:39:13;1.90;;;1.27;;
11699;SDS011;5906;51.660;6.674;2022-07-15T15:41:41;2.57;;;1.47;;
11699;SDS011;5906;51.660;6.674;2022-07-15T15:44:08;2.73;;;1.30;;
11699;SDS011;5906;51.660;6.674;2022-07-15T15:46:35;3.83;;;1.57;;
11699;SDS011;5906;51.660;6.674;2022-07-15T15:49:02;4.00;;;1.47;;
11699;SDS011;5906;51.660;6.674;2022-07-15T15:51:28;3.50;;;1.43;;
11699;SDS011;5906;51.660;6.674;2022-07-15T15:53:55;2.70;;;1.47;;
11699;SDS011;5906;51.660;6.674;2022-07-15T15:56:22;4.93;;;1.63;;
11699;SDS011;5906;51.660;6.674;2022-07-15T15:58:49;2.23;;;1.40;;